Time;durP1;ratioP1;P1;durP2;ratioP2;P2;SDS_P1;SDS_P2;PMS_P1;PMS_P2;Temp;Humidity;BMP_temperature;BMP_pressure;BME280_temperature;BME280_humidity;BME280_pressure;Samples;Min_cycle;Max_cycle;Signal;HPM_P1;HPM_P2
2024/02/04 00:01:05;;;;;;;11.73;6.80;;;7.90;99.90;;;;;;5023364;28;20052;-66
2024/02/04 00:03:31;;;;;;;7.18;5.35;;;7.90;99.90;;;;;;5020687;28;20041;-65
2024/02/04 00:05:56;;;;;;;10.57;5.93;;;7.90;99.90;;;;;;5020399;28;20037;-66
2024/02/04 00:08:22;;;;;;;8.15;5.47;;;7.90;99.90;;;;;;5023277;28;20069;-66
2024/02/04 00:10:50;;;;;;;;;;;8.00;99.90;;;;;;5017764;28;20041;-65
2024/02/04 00:13:16;;;;;;;8.25;5.45;;;8.00;99.90;;;;;;5023263;28;19917;-66
2024/02/04 00:15:42;;;;;;;8.82;5.63;;;7.90;99.90;;;;;;5022541;28;20590;-66
2024/02/04 00:18:07;;;;;;;9.45;6.43;;;7.90;99.90;;;;;;5009126;28;20406;-66
2024/02/04 00:20:33;;;;;;;12.50;6.35;;;7.80;99.90;;;;;;5007858;28;20037;-66
2024/02/04 00:22:59;;;;;;;7.50;5.28;;;7.70;99.90;;;;;;5009632;28;20045;-66
2024/02/04 00:25:24;;;;;;;7.60;5.10;;;7.60;99.90;;;;;;5003230;28;20054;-66
2024/02/04 00:27:50;;;;;;;8.18;5.45;;;7.60;99.90;;;;;;5007032;28;20041;-66
2024/02/04 00:30:16;;;;;;;7.60;5.25;;;7.60;99.90;;;;;;5009585;28;20379;-66
2024/02/04 00:32:41;;;;;;;6.38;4.47;;;7.50;99.90;;;;;;5010107;28;20050;-66
2024/02/04 00:35:07;;;;;;;;;;;7.60;99.90;;;;;;5008895;28;20034;-66
2024/02/04 00:37:33;;;;;;;7.47;4.53;;;7.60;99.90;;;;;;5007564;28;20383;-66
2024/02/04 00:39:58;;;;;;;;;;;7.70;99.90;;;;;;5009460;28;20034;-66
2024/02/04 00:42:24;;;;;;;7.53;4.40;;;7.70;99.90;;;;;;5006999;28;19936;-66
2024/02/04 00:44:49;;;;;;;10.77;5.00;;;7.80;99.90;;;;;;5008778;28;20042;-66
2024/02/04 00:47:15;;;;;;;;;;;7.80;99.90;;;;;;5005971;28;20088;-67
2024/02/04 00:49:40;;;;;;;8.38;4.95;;;7.80;99.90;;;;;;5008774;28;19917;-66
2024/02/04 00:52:06;;;;;;;6.93;4.68;;;7.80;99.90;;;;;;5005916;28;20409;-66
2024/02/04 00:54:31;;;;;;;;;;;7.90;99.90;;;;;;5009304;28;20045;-66
2024/02/04 00:56:57;;;;;;;7.80;4.32;;;7.90;99.90;;;;;;5005944;28;19965;-66
2024/02/04 00:59:23;;;;;;;5.88;4.13;;;7.90;99.90;;;;;;5009146;28;20042;-66
2024/02/04 01:01:48;;;;;;;9.95;4.68;;;7.90;99.90;;;;;;5011291;28;20042;-65
2024/02/04 01:04:14;;;;;;;;;;;7.90;99.90;;;;;;5010364;28;20437;-65
2024/02/04 01:06:40;;;;;;;6.63;4.40;;;7.90;99.90;;;;;;5005749;28;20348;-66
2024/02/04 01:09:05;;;;;;;5.95;4.65;;;7.90;99.90;;;;;;5006033;28;20072;-65
2024/02/04 01:11:31;;;;;;;14.07;4.55;;;7.90;99.90;;;;;;5006768;28;20034;-65
2024/02/04 01:13:57;;;;;;;11.80;5.10;;;7.90;99.90;;;;;;5007272;28;20042;-65
2024/02/04 01:16:22;;;;;;;10.65;5.45;;;7.90;99.90;;;;;;5007513;28;20631;-66
2024/02/04 01:18:48;;;;;;;9.55;4.45;;;7.90;99.90;;;;;;5005026;28;20614;-65
2024/02/04 01:21:13;;;;;;;5.70;4.30;;;7.90;99.90;;;;;;5005935;28;20490;-65
2024/02/04 01:23:39;;;;;;;5.88;4.63;;;7.90;99.90;;;;;;5005640;28;20457;-66
2024/02/04 01:26:04;;;;;;;;;;;7.90;99.90;;;;;;5006982;28;20065;-65
2024/02/04 01:28:30;;;;;;;5.07;4.05;;;7.90;99.90;;;;;;5003294;28;19917;-66
2024/02/04 01:30:55;;;;;;;7.82;4.30;;;7.90;99.90;;;;;;5006290;28;20085;-66
2024/02/04 01:33:21;;;;;;;;;;;8.00;99.90;;;;;;5005898;28;20389;-65
2024/02/04 01:35:46;;;;;;;7.97;4.45;;;7.90;99.90;;;;;;5008870;28;19931;-66
2024/02/04 01:38:12;;;;;;;5.88;4.15;;;7.90;99.90;;;;;;5005149;28;20554;-66
2024/02/04 01:40:37;;;;;;;7.20;3.95;;;7.90;99.90;;;;;;5008639;28;20037;-66
2024/02/04 01:43:03;;;;;;;5.95;3.65;;;7.90;99.90;;;;;;5003800;28;20042;-66
2024/02/04 01:45:29;;;;;;;5.28;3.40;;;7.90;99.90;;;;;;5007780;28;20100;-66
2024/02/04 01:47:54;;;;;;;;;;;7.80;99.90;;;;;;5004565;28;20521;-65
2024/02/04 01:50:21;;;;;;;4.80;2.95;;;7.80;99.90;;;;;;5012951;28;19921;-65
2024/02/04 01:52:47;;;;;;;5.40;2.53;;;7.80;99.90;;;;;;5006677;28;20440;-66
2024/02/04 01:55:13;;;;;;;3.78;3.03;;;7.80;99.90;;;;;;5008307;28;20049;-65
2024/02/04 01:57:40;;;;;;;3.83;3.10;;;7.80;99.90;;;;;;5004443;28;20401;-65
2024/02/04 02:00:09;;;;;;;4.28;3.30;;;7.80;99.90;;;;;;5009416;28;20042;-67
2024/02/04 02:02:37;;;;;;;5.93;3.13;;;7.80;99.90;;;;;;5004841;28;20663;-66
2024/02/04 02:05:02;;;;;;;5.78;2.97;;;7.80;99.90;;;;;;5007498;28;20052;-65
2024/02/04 02:07:28;;;;;;;4.43;2.90;;;7.80;99.90;;;;;;5007292;28;20599;-65
2024/02/04 02:09:54;;;;;;;;;;;7.80;99.90;;;;;;5003013;28;20102;-66
2024/02/04 02:12:25;;;;;;;3.30;2.83;;;7.80;99.90;;;;;;5003301;28;19919;-66
2024/02/04 02:14:58;;;;;;;3.88;3.00;;;7.70;99.90;;;;;;5003257;28;20041;-65
2024/02/04 02:17:30;;;;;;;4.63;3.03;;;7.70;99.90;;;;;;5007058;28;20108;-66
2024/02/04 02:20:10;;;;;;;6.22;3.30;;;7.80;99.90;;;;;;5007802;28;20072;-66
2024/02/04 02:22:47;;;;;;;5.75;2.42;;;7.80;99.90;;;;;;5003196;28;20433;-66
2024/02/04 02:25:14;;;;;;;3.97;2.40;;;7.70;99.90;;;;;;5008301;28;20034;-66
2024/02/04 02:27:49;;;;;;;2.70;2.03;;;7.70;99.90;;;;;;5007800;28;20665;-66
2024/02/04 02:30:16;;;;;;;3.95;2.47;;;7.70;99.90;;;;;;5007007;28;20045;-66
2024/02/04 02:32:46;;;;;;;4.50;2.10;;;7.70;99.90;;;;;;5006442;28;20041;-66
2024/02/04 02:35:13;;;;;;;3.17;2.38;;;7.70;99.90;;;;;;5007550;28;20092;-66
2024/02/04 02:37:45;;;;;;;3.50;2.00;;;7.70;99.90;;;;;;5003533;28;20038;-66
2024/02/04 02:40:13;;;;;;;2.50;1.30;;;7.70;99.90;;;;;;5007928;28;20041;-66
2024/02/04 02:42:42;;;;;;;2.63;1.58;;;7.70;99.90;;;;;;5003520;28;20034;-66
2024/02/04 02:45:09;;;;;;;1.52;1.30;;;7.70;99.90;;;;;;5007462;28;20088;-66
2024/02/04 02:47:35;;;;;;;2.03;1.20;;;7.70;99.90;;;;;;5006130;28;20050;-66
2024/02/04 02:50:01;;;;;;;0.80;0.80;;;7.70;99.90;;;;;;5006898;28;20505;-66
2024/02/04 02:52:27;;;;;;;0.85;0.80;;;7.70;99.90;;;;;;5007276;28;20049;-66
2024/02/04 02:54:52;;;;;;;;;;;7.70;99.90;;;;;;5009165;28;20030;-66
2024/02/04 02:57:18;;;;;;;1.20;1.00;;;7.70;99.90;;;;;;5002629;28;20335;-66
2024/02/04 02:59:43;;;;;;;1.40;0.80;;;7.70;99.90;;;;;;5006141;28;20069;-66
2024/02/04 03:02:09;;;;;;;;;;;7.70;99.90;;;;;;5006597;28;20165;-66
2024/02/04 03:04:34;;;;;;;0.85;0.70;;;7.70;99.90;;;;;;5007702;28;20012;-66
2024/02/04 03:07:01;;;;;;;0.90;0.80;;;7.70;99.90;;;;;;5000958;28;20661;-66
2024/02/04 03:09:26;;;;;;;0.57;0.50;;;7.70;99.90;;;;;;5005926;28;20124;-66
2024/02/04 03:11:52;;;;;;;0.60;0.50;;;7.70;99.90;;;;;;5003571;28;20134;-67
2024/02/04 03:14:18;;;;;;;;;;;7.70;99.90;;;;;;5005217;28;20351;-66
2024/02/04 03:16:45;;;;;;;0.50;0.50;;;7.70;99.90;;;;;;5004188;28;19964;-66
2024/02/04 03:19:10;;;;;;;0.32;0.32;;;7.70;99.90;;;;;;5006092;28;20134;-66
2024/02/04 03:21:36;;;;;;;0.30;0.30;;;7.80;99.90;;;;;;5003333;28;20124;-66
2024/02/04 03:24:01;;;;;;;0.20;0.20;;;7.70;99.90;;;;;;5003898;28;20038;-65
2024/02/04 03:26:27;;;;;;;;;;;7.80;99.90;;;;;;5005282;28;20042;-66
2024/02/04 03:28:52;;;;;;;0.65;0.30;;;7.80;99.90;;;;;;5006334;28;19976;-66
2024/02/04 03:31:22;;;;;;;1.23;0.22;;;7.80;99.90;;;;;;5006311;28;20541;-66
2024/02/04 03:33:47;;;;;;;2.85;0.20;;;7.80;99.90;;;;;;5006650;28;20038;-66
2024/02/04 03:36:18;;;;;;;0.20;0.20;;;7.80;99.90;;;;;;5007440;28;20100;-66
2024/02/04 03:38:44;;;;;;;0.20;0.10;;;7.80;99.90;;;;;;5007059;28;20109;-66
2024/02/04 03:41:10;;;;;;;0.10;0.10;;;7.70;99.90;;;;;;5006657;28;20116;-67
2024/02/04 03:43:38;;;;;;;0.10;0.10;;;7.80;99.90;;;;;;5007811;28;20048;-66
2024/02/04 03:46:04;;;;;;;0.35;0.20;;;7.80;99.90;;;;;;5007460;28;20053;-66
2024/02/04 03:48:29;;;;;;;0.25;0.20;;;7.80;99.90;;;;;;5002915;28;20034;-66
2024/02/04 03:50:55;;;;;;;;;;;7.80;99.90;;;;;;5007170;28;20037;-66
2024/02/04 03:53:22;;;;;;;0.50;0.30;;;7.80;99.90;;;;;;5004851;28;20048;-67
2024/02/04 03:55:48;;;;;;;0.32;0.30;;;7.80;99.90;;;;;;5010586;28;20084;-66
2024/02/04 03:58:14;;;;;;;0.20;0.20;;;7.80;99.90;;;;;;5004980;28;20038;-66
2024/02/04 04:00:40;;;;;;;;;;;7.80;99.90;;;;;;5010688;28;20049;-66
2024/02/04 04:03:05;;;;;;;0.30;0.20;;;7.80;99.90;;;;;;5007657;28;19917;-66
2024/02/04 04:05:31;;;;;;;0.50;0.40;;;7.80;99.90;;;;;;5010217;28;20553;-67
2024/02/04 04:07:56;;;;;;;0.80;0.50;;;7.80;99.90;;;;;;5004482;28;20129;-66
2024/02/04 04:10:22;;;;;;;1.17;0.85;;;7.80;99.90;;;;;;5008406;28;20041;-65
2024/02/04 04:12:47;;;;;;;5.53;1.23;;;7.80;99.90;;;;;;5003897;28;20417;-66
2024/02/04 04:15:18;;;;;;;4.50;1.90;;;7.80;99.90;;;;;;5009677;28;20092;-66
2024/02/04 04:17:43;;;;;;;5.28;3.17;;;7.80;99.90;;;;;;5004629;28;20033;-66
2024/02/04 04:20:09;;;;;;;4.18;3.17;;;7.70;99.90;;;;;;5010233;28;20436;-66
2024/02/04 04:22:35;;;;;;;4.55;3.30;;;7.70;99.90;;;;;;5004337;28;20073;-66
2024/02/04 04:25:00;;;;;;;6.88;4.00;;;7.70;99.90;;;;;;5009470;28;20092;-66
2024/02/04 04:27:26;;;;;;;;;;;7.70;99.90;;;;;;5004542;28;20072;-66
2024/02/04 04:29:51;;;;;;;6.20;4.85;;;7.80;99.90;;;;;;5009154;28;19924;-66
2024/02/04 04:32:17;;;;;;;4.50;3.50;;;7.80;99.90;;;;;;5003527;28;20038;-66
2024/02/04 04:34:42;;;;;;;6.70;4.43;;;7.80;99.90;;;;;;5009802;28;20058;-66
2024/02/04 04:37:08;;;;;;;6.68;4.75;;;7.80;99.90;;;;;;5009139;28;20122;-66
2024/02/04 04:39:33;;;;;;;;;;;7.80;99.90;;;;;;5010346;28;20502;-66
2024/02/04 04:41:59;;;;;;;7.13;5.55;;;7.80;99.90;;;;;;5003370;28;20594;-66
2024/02/04 04:44:27;;;;;;;6.20;5.13;;;7.80;99.90;;;;;;5008456;28;20450;-66
2024/02/04 04:46:53;;;;;;;7.28;4.90;;;7.80;99.90;;;;;;5004052;28;20034;-66
2024/02/04 04:49:18;;;;;;;8.45;5.22;;;7.80;99.90;;;;;;5008448;28;20049;-66
2024/02/04 04:51:47;;;;;;;;;;;7.80;99.90;;;;;;5009848;28;20497;-66
2024/02/04 04:54:12;;;;;;;8.05;5.50;;;7.80;99.90;;;;;;5009057;28;19921;-66
2024/02/04 04:56:39;;;;;;;7.82;5.30;;;7.80;99.90;;;;;;5006855;28;20566;-67
2024/02/04 04:59:06;;;;;;;12.02;7.13;;;7.90;99.90;;;;;;5004013;28;20037;-66
2024/02/04 05:01:31;;;;;;;10.18;5.88;;;7.90;99.90;;;;;;5005495;28;20079;-66
2024/02/04 05:03:57;;;;;;;9.80;7.22;;;7.90;99.90;;;;;;5005202;28;20038;-66
2024/02/04 05:06:22;;;;;;;;;;;7.90;99.90;;;;;;5006236;28;20053;-66
2024/02/04 05:08:48;;;;;;;9.32;7.13;;;7.90;99.90;;;;;;5009126;28;19932;-66
2024/02/04 05:11:13;;;;;;;;;;;7.90;99.90;;;;;;5009679;28;20034;-66
2024/02/04 05:13:39;;;;;;;9.88;7.70;;;7.90;99.90;;;;;;5011029;28;19918;-66
2024/02/04 05:16:05;;;;;;;11.45;8.35;;;7.90;99.90;;;;;;5009990;28;20513;-65
2024/02/04 05:18:31;;;;;;;10.27;6.85;;;7.80;99.90;;;;;;5006984;28;20048;-66
2024/02/04 05:20:56;;;;;;;;;;;7.90;99.90;;;;;;5009721;28;20177;-66
2024/02/04 05:23:22;;;;;;;13.18;7.22;;;7.90;99.90;;;;;;5002406;28;19917;-66
2024/02/04 05:25:47;;;;;;;;;;;7.90;99.90;;;;;;5009415;28;20140;-66
2024/02/04 05:28:13;;;;;;;12.45;7.88;;;7.90;99.90;;;;;;5000231;28;19921;-66
2024/02/04 05:30:38;;;;;;;12.43;7.80;;;7.90;99.90;;;;;;5009396;28;20116;-66
2024/02/04 05:33:04;;;;;;;11.25;7.97;;;7.90;99.90;;;;;;5002352;28;20038;-66
2024/02/04 05:35:29;;;;;;;;;;;7.90;99.90;;;;;;5015699;28;20520;-66
2024/02/04 05:37:55;;;;;;;12.25;7.93;;;7.90;99.90;;;;;;5001727;28;20285;-66
2024/02/04 05:40:21;;;;;;;11.95;8.43;;;8.00;99.90;;;;;;5007328;28;20119;-66
2024/02/04 05:42:46;;;;;;;;;;;8.00;99.90;;;;;;5007917;28;20030;-65
2024/02/04 05:45:12;;;;;;;13.02;8.20;;;8.00;99.90;;;;;;5006842;28;20369;-66
2024/02/04 05:47:37;;;;;;;11.48;8.10;;;8.00;99.90;;;;;;5007845;28;20053;-65
2024/02/04 05:50:03;;;;;;;;;;;7.90;99.90;;;;;;5016773;28;20041;-66
2024/02/04 05:52:28;;;;;;;17.05;9.25;;;8.00;99.90;;;;;;5006986;28;19925;-66
2024/02/04 05:54:54;;;;;;;10.43;7.80;;;7.90;99.90;;;;;;5007791;28;20049;-65
2024/02/04 05:57:20;;;;;;;12.05;8.45;;;7.90;99.90;;;;;;5008456;28;20037;-66
2024/02/04 05:59:48;;;;;;;11.27;7.70;;;7.90;99.90;;;;;;5007500;28;20042;-66
2024/02/04 06:02:14;;;;;;;12.15;7.80;;;7.90;99.90;;;;;;5000684;28;20027;-66
2024/02/04 06:04:40;;;;;;;10.13;7.07;;;7.90;99.90;;;;;;5004227;28;20088;-66
2024/02/04 06:07:05;;;;;;;8.93;6.57;;;8.00;99.90;;;;;;5007153;28;20041;-66
2024/02/04 06:09:33;;;;;;;9.73;6.60;;;8.00;99.90;;;;;;5003610;28;20037;-67
2024/02/04 06:11:58;;;;;;;11.82;6.72;;;7.90;99.90;;;;;;4999342;28;20049;-66
2024/02/04 06:14:24;;;;;;;9.82;5.50;;;7.90;99.90;;;;;;5006069;28;20046;-65
2024/02/04 06:16:49;;;;;;;5.72;3.97;;;7.90;99.90;;;;;;5001725;28;20428;-66
2024/02/04 06:19:15;;;;;;;5.13;3.65;;;7.90;99.90;;;;;;5004452;28;20092;-65
2024/02/04 06:21:40;;;;;;;6.95;3.75;;;7.90;99.90;;;;;;5003609;28;20037;-66
2024/02/04 06:24:06;;;;;;;6.35;4.20;;;7.90;99.90;;;;;;5003592;28;20042;-66
2024/02/04 06:26:32;;;;;;;;;;;7.90;99.90;;;;;;5005689;28;20124;-65
2024/02/04 06:28:57;;;;;;;6.53;4.07;;;7.90;99.90;;;;;;4997172;28;19917;-65
2024/02/04 06:31:23;;;;;;;7.07;4.75;;;7.90;99.90;;;;;;5010384;28;20041;-65
2024/02/04 06:33:48;;;;;;;7.82;5.03;;;7.90;99.90;;;;;;5001731;28;20038;-65
2024/02/04 06:36:14;;;;;;;7.43;5.35;;;7.80;99.90;;;;;;5006457;28;20703;-65
2024/02/04 06:38:40;;;;;;;7.55;5.38;;;7.80;99.90;;;;;;5006466;28;20048;-66
2024/02/04 06:41:05;;;;;;;6.88;4.82;;;7.80;99.90;;;;;;5007037;28;20030;-66
2024/02/04 06:43:31;;;;;;;7.93;5.43;;;7.80;99.90;;;;;;5000422;28;20038;-65
2024/02/04 06:45:56;;;;;;;;;;;7.80;99.90;;;;;;5008011;28;20560;-65
2024/02/04 06:48:22;;;;;;;8.65;5.97;;;7.80;99.90;;;;;;5007495;28;19921;-66
2024/02/04 06:50:47;;;;;;;9.40;6.57;;;7.80;99.90;;;;;;5007833;28;20034;-65
2024/02/04 06:53:14;;;;;;;9.93;7.05;;;7.80;99.90;;;;;;5007905;28;20133;-66
2024/02/04 06:55:39;;;;;;;10.85;6.95;;;7.80;99.90;;;;;;5008123;28;20064;-65
2024/02/04 06:58:05;;;;;;;10.20;7.45;;;7.70;99.90;;;;;;5000845;28;20133;-66
2024/02/04 07:00:30;;;;;;;10.27;8.05;;;7.60;99.90;;;;;;5006402;28;20056;-65
2024/02/04 07:02:56;;;;;;;;;;;7.60;99.90;;;;;;5001643;28;20037;-66
2024/02/04 07:05:22;;;;;;;10.27;7.07;;;7.60;99.90;;;;;;5006508;28;20016;-66
2024/02/04 07:07:49;;;;;;;13.43;8.32;;;7.50;99.90;;;;;;5002421;28;20053;-66
2024/02/04 07:10:15;;;;;;;12.57;8.10;;;7.50;99.90;;;;;;5004421;28;20393;-65
2024/02/04 07:12:41;;;;;;;18.35;7.78;;;7.60;99.90;;;;;;4994294;28;20097;-65
2024/02/04 07:15:07;;;;;;;11.18;7.75;;;7.60;99.90;;;;;;5006964;28;20138;-66
2024/02/04 07:17:32;;;;;;;12.85;8.35;;;7.60;99.90;;;;;;4996617;28;20061;-64
2024/02/04 07:19:58;;;;;;;10.77;7.78;;;7.60;99.90;;;;;;5010623;28;20045;-66
2024/02/04 07:22:23;;;;;;;13.75;8.10;;;7.60;99.90;;;;;;4999419;28;20113;-65
2024/02/04 07:24:49;;;;;;;10.80;7.03;;;7.60;99.90;;;;;;5007290;28;20156;-65
2024/02/04 07:27:14;;;;;;;;;;;7.60;99.90;;;;;;5004915;28;20058;-66
2024/02/04 07:29:40;;;;;;;13.95;7.32;;;7.60;99.90;;;;;;5010100;28;20409;-65
2024/02/04 07:32:06;;;;;;;15.10;8.35;;;7.60;99.90;;;;;;5008888;28;20045;-65
2024/02/04 07:34:31;;;;;;;;;;;7.60;99.90;;;;;;5010696;28;20065;-66
2024/02/04 07:36:58;;;;;;;13.40;7.63;;;7.60;99.90;;;;;;5019714;28;19928;-64
2024/02/04 07:39:23;;;;;;;11.20;6.90;;;7.70;99.90;;;;;;5015938;28;20057;-66
2024/02/04 07:41:49;;;;;;;10.98;6.70;;;7.60;99.90;;;;;;5012897;28;20148;-65
2024/02/04 07:44:14;;;;;;;;;;;7.70;99.90;;;;;;5011690;28;20069;-65
2024/02/04 07:46:40;;;;;;;9.02;6.20;;;7.70;99.90;;;;;;5007152;28;20411;-65
2024/02/04 07:49:06;;;;;;;10.18;6.88;;;7.70;99.90;;;;;;5007506;28;20053;-64
2024/02/04 07:51:32;;;;;;;;;;;7.70;99.90;;;;;;5009916;28;20489;-66
2024/02/04 07:53:57;;;;;;;9.27;6.85;;;7.70;99.90;;;;;;5010998;28;20345;-66
2024/02/04 07:56:23;;;;;;;10.32;6.95;;;7.80;99.90;;;;;;5009189;28;20061;-66
2024/02/04 07:58:48;;;;;;;;;;;7.70;99.90;;;;;;5010125;28;20037;-65
2024/02/04 08:01:13;;;;;;;12.85;6.40;;;7.70;99.90;;;;;;5009756;28;19948;-66
2024/02/04 08:03:40;;;;;;;10.10;6.20;;;7.80;99.90;;;;;;5010150;28;20044;-66
2024/02/04 08:06:05;;;;;;;8.07;5.00;;;7.80;99.90;;;;;;5009507;28;20421;-65
2024/02/04 08:08:31;;;;;;;7.95;6.13;;;7.80;99.90;;;;;;5009807;28;20046;-63
2024/02/04 08:10:57;;;;;;;9.02;5.22;;;7.80;99.90;;;;;;5010492;28;20045;-66
2024/02/04 08:13:23;;;;;;;6.90;4.38;;;7.80;99.90;;;;;;5003100;28;20068;-71
2024/02/04 08:15:48;;;;;;;;;;;7.80;99.90;;;;;;5005261;28;20073;-68
2024/02/04 08:18:14;;;;;;;6.93;3.90;;;7.80;99.90;;;;;;5008755;28;19957;-69
2024/02/04 08:20:39;;;;;;;5.22;3.00;;;7.70;99.90;;;;;;5003600;28;20057;-68
2024/02/04 08:23:05;;;;;;;;;;;7.70;99.90;;;;;;5009970;28;20145;-68
2024/02/04 08:25:30;;;;;;;3.33;2.70;;;7.70;99.90;;;;;;5010269;28;20274;-68
2024/02/04 08:27:56;;;;;;;3.25;2.50;;;7.80;99.90;;;;;;5014950;28;20084;-67
2024/02/04 08:30:21;;;;;;;3.92;2.35;;;7.80;99.90;;;;;;5007406;28;20045;-68
2024/02/04 08:32:47;;;;;;;3.72;2.67;;;7.80;99.90;;;;;;5009181;28;20038;-67
2024/02/04 08:35:13;;;;;;;;;;;7.80;99.90;;;;;;5011653;28;20037;-65
2024/02/04 08:37:38;;;;;;;5.30;2.65;;;7.80;99.90;;;;;;5008551;28;19921;-68
2024/02/04 08:40:06;;;;;;;4.97;2.90;;;7.80;99.90;;;;;;5008273;28;20049;-66
2024/02/04 08:42:32;;;;;;;6.35;3.85;;;7.80;99.90;;;;;;5005750;28;20042;-66
2024/02/04 08:44:57;;;;;;;3.92;2.97;;;7.80;99.90;;;;;;5009997;28;20044;-67
2024/02/04 08:47:23;;;;;;;5.50;3.72;;;7.80;99.90;;;;;;5008629;28;20046;-66
2024/02/04 08:49:49;;;;;;;7.75;3.60;;;7.80;99.90;;;;;;5008746;28;20049;-66
2024/02/04 08:52:14;;;;;;;4.60;3.03;;;7.90;99.90;;;;;;5007816;28;20042;-67
2024/02/04 08:54:40;;;;;;;5.35;3.70;;;7.90;99.90;;;;;;5009197;28;20038;-67
2024/02/04 08:57:06;;;;;;;4.45;3.20;;;7.90;99.90;;;;;;5008431;28;20118;-66
2024/02/04 08:59:31;;;;;;;4.60;3.17;;;7.90;99.90;;;;;;5009410;28;20045;-66
2024/02/04 09:01:57;;;;;;;6.25;3.67;;;7.90;99.90;;;;;;5007078;28;20056;-66
2024/02/04 09:04:22;;;;;;;7.07;4.53;;;7.90;99.90;;;;;;5009384;28;20050;-65
2024/02/04 09:06:48;;;;;;;5.15;3.00;;;7.80;99.90;;;;;;5006780;28;20042;-65
2024/02/04 09:09:14;;;;;;;6.40;3.30;;;7.80;99.90;;;;;;5008101;28;20045;-65
2024/02/04 09:11:39;;;;;;;3.47;2.58;;;7.80;99.90;;;;;;5007016;28;20108;-66
2024/02/04 09:14:05;;;;;;;4.13;2.33;;;7.70;99.90;;;;;;5008781;28;20045;-65
2024/02/04 09:16:30;;;;;;;4.72;2.47;;;7.80;99.90;;;;;;5006827;28;20050;-65
2024/02/04 09:18:56;;;;;;;3.15;2.08;;;7.70;99.90;;;;;;5008466;28;20386;-63
2024/02/04 09:21:22;;;;;;;;;;;7.70;99.90;;;;;;5009738;28;20069;-66
2024/02/04 09:23:48;;;;;;;2.70;1.95;;;7.70;99.90;;;;;;5007189;28;19971;-65
2024/02/04 09:26:14;;;;;;;3.60;2.10;;;7.70;99.90;;;;;;5008950;28;20038;-65
2024/02/04 09:28:39;;;;;;;;;;;7.70;99.90;;;;;;5007257;28;20034;-64
2024/02/04 09:31:08;;;;;;;3.63;2.03;;;7.70;99.90;;;;;;5005366;28;20401;-65
2024/02/04 09:33:35;;;;;;;3.83;1.67;;;7.60;99.90;;;;;;5006862;28;20663;-68
2024/02/04 09:36:00;;;;;;;2.65;1.90;;;7.60;99.90;;;;;;5008754;28;20091;-66
2024/02/04 09:38:26;;;;;;;2.15;1.67;;;7.60;99.90;;;;;;5003599;28;20049;-67
2024/02/04 09:40:52;;;;;;;1.48;1.20;;;7.60;99.90;;;;;;4985232;28;20073;-68
2024/02/04 09:43:19;;;;;;;1.35;1.25;;;7.70;99.90;;;;;;5006005;28;20034;-67
2024/02/04 09:45:44;;;;;;;1.45;1.20;;;7.60;99.90;;;;;;5007383;28;20172;-66
2024/02/04 09:48:11;;;;;;;1.40;1.20;;;7.60;99.90;;;;;;5002510;28;20125;-66
2024/02/04 09:50:37;;;;;;;6.72;1.52;;;7.60;99.90;;;;;;5002363;28;20125;-66
2024/02/04 09:53:08;;;;;;;1.27;1.17;;;7.60;99.90;;;;;;4997862;28;20037;-66
2024/02/04 09:55:34;;;;;;;1.50;1.20;;;7.50;99.90;;;;;;5002641;28;20045;-66
2024/02/04 09:58:01;;;;;;;3.45;1.50;;;7.50;99.90;;;;;;5005084;28;20038;-66
2024/02/04 10:00:29;;;;;;;3.00;1.35;;;7.50;99.90;;;;;;5007174;28;20046;-66
2024/02/04 10:02:55;;;;;;;1.40;1.30;;;7.50;99.90;;;;;;5003481;28;20041;-66
2024/02/04 10:05:21;;;;;;;1.65;0.95;;;7.50;99.90;;;;;;5007064;28;20038;-65
2024/02/04 10:07:47;;;;;;;1.50;1.20;;;7.50;99.90;;;;;;5005358;28;20057;-66
2024/02/04 10:10:13;;;;;;;2.72;1.10;;;7.50;99.90;;;;;;5007439;28;20061;-65
2024/02/04 10:12:40;;;;;;;2.45;1.10;;;7.50;99.90;;;;;;5006488;28;20104;-66
2024/02/04 10:15:07;;;;;;;1.55;1.20;;;7.40;99.90;;;;;;5006609;28;20038;-65
2024/02/04 10:17:33;;;;;;;2.00;1.10;;;7.40;99.90;;;;;;5002209;28;20155;-66
2024/02/04 10:20:00;;;;;;;2.90;1.10;;;7.40;99.90;;;;;;5007371;28;20073;-67
2024/02/04 10:22:28;;;;;;;4.50;1.10;;;7.40;99.90;;;;;;5002889;28;20046;-67
2024/02/04 10:24:53;;;;;;;1.17;1.08;;;7.40;99.90;;;;;;5008222;28;20034;-67
2024/02/04 10:27:20;;;;;;;2.15;1.15;;;7.40;99.90;;;;;;5006894;28;20042;-66
2024/02/04 10:29:45;;;;;;;1.60;1.10;;;7.40;99.90;;;;;;5007354;28;20046;-67
2024/02/04 10:32:13;;;;;;;1.55;0.80;;;7.50;99.90;;;;;;5005566;28;20068;-66
2024/02/04 10:34:38;;;;;;;1.17;1.00;;;7.50;99.90;;;;;;5006138;28;20038;-66
2024/02/04 10:37:05;;;;;;;1.42;0.90;;;7.50;99.90;;;;;;5005599;28;20045;-66
2024/02/04 10:39:30;;;;;;;1.10;0.82;;;7.50;99.90;;;;;;5006602;28;20038;-65
2024/02/04 10:42:02;;;;;;;1.10;0.80;;;7.50;99.90;;;;;;5019914;28;20046;-67
2024/02/04 10:44:31;;;;;;;0.80;0.60;;;7.50;99.90;;;;;;5007496;28;20042;-67
2024/02/04 10:46:58;;;;;;;3.65;0.90;;;7.50;99.90;;;;;;5005977;28;20189;-67
2024/02/04 10:49:26;;;;;;;0.40;0.40;;;7.50;99.90;;;;;;5007303;28;20489;-68
2024/02/04 10:51:56;;;;;;;2.15;0.85;;;7.50;99.90;;;;;;5003644;28;20117;-68
2024/02/04 10:54:27;;;;;;;0.90;0.50;;;7.50;99.90;;;;;;5005667;28;20046;-66
2024/02/04 10:56:58;;;;;;;1.08;0.80;;;7.50;99.90;;;;;;5002069;28;20502;-66
2024/02/04 10:59:24;;;;;;;1.27;1.10;;;7.50;99.90;;;;;;5004195;28;20506;-67
2024/02/04 11:01:50;;;;;;;2.03;1.38;;;7.50;99.90;;;;;;4999327;28;20034;-66
2024/02/04 11:04:17;;;;;;;2.15;1.20;;;7.50;99.90;;;;;;5006552;28;20041;-66
2024/02/04 11:06:44;;;;;;;3.00;1.92;;;7.60;99.90;;;;;;5003515;28;20061;-68
2024/02/04 11:09:11;;;;;;;2.20;1.80;;;7.60;99.90;;;;;;5007804;28;20034;-66
2024/02/04 11:11:38;;;;;;;6.68;2.75;;;7.70;99.90;;;;;;5002306;28;20040;-66
2024/02/04 11:14:09;;;;;;;4.82;2.78;;;7.70;99.90;;;;;;5007777;28;20057;-66
2024/02/04 11:16:44;;;;;;;5.45;3.47;;;7.80;99.90;;;;;;4999643;28;20072;-66
2024/02/04 11:19:52;;;;;;;4.07;3.30;;;7.80;99.90;;;;;;5004124;28;20048;-65
2024/02/04 11:22:21;;;;;;;7.05;3.08;;;7.80;99.90;;;;;;5001628;28;20037;-66
2024/02/04 11:25:28;;;;;;;4.03;3.00;;;7.90;99.90;;;;;;5006244;28;20045;-66
2024/02/04 11:27:54;;;;;;;7.50;3.30;;;8.00;99.90;;;;;;5006502;28;20693;-66
2024/02/04 11:30:19;;;;;;;5.38;2.90;;;8.10;99.90;;;;;;5003333;28;20113;-66
2024/02/04 11:32:46;;;;;;;4.45;2.88;;;8.20;99.90;;;;;;5002265;28;20129;-66
2024/02/04 11:35:12;;;;;;;3.65;2.70;;;8.30;99.90;;;;;;5006667;28;20042;-66
2024/02/04 11:37:38;;;;;;;4.70;3.35;;;8.30;99.90;;;;;;5001560;28;20598;-66
2024/02/04 11:40:04;;;;;;;4.55;3.30;;;8.30;99.90;;;;;;5006043;28;20045;-66
2024/02/04 11:42:33;;;;;;;5.07;2.75;;;8.30;99.90;;;;;;5003971;28;20069;-66
2024/02/04 11:45:12;;;;;;;4.53;3.17;;;8.20;99.90;;;;;;5007007;28;20544;-66
2024/02/04 11:47:38;;;;;;;3.78;2.30;;;8.20;99.90;;;;;;5000059;28;20060;-66
2024/02/04 11:50:05;;;;;;;9.75;2.55;;;8.10;99.90;;;;;;5005052;28;20038;-66
2024/02/04 11:52:31;;;;;;;3.65;2.10;;;8.10;99.90;;;;;;5005276;28;20045;-66
2024/02/04 11:54:57;;;;;;;4.15;2.10;;;8.10;99.90;;;;;;5008165;28;20108;-66
2024/02/04 11:57:23;;;;;;;1.77;1.48;;;8.20;99.90;;;;;;5004806;28;20092;-66
2024/02/04 11:59:50;;;;;;;2.60;2.10;;;8.10;99.90;;;;;;5000961;28;20240;-66
2024/02/04 12:02:17;;;;;;;2.25;1.85;;;8.10;99.90;;;;;;4998506;28;20049;-66
2024/02/04 12:04:46;;;;;;;2.25;2.05;;;8.10;99.90;;;;;;5006703;28;20045;-69
2024/02/04 12:07:13;;;;;;;4.40;2.00;;;8.10;99.90;;;;;;5002760;28;20034;-69
2024/02/04 12:09:40;;;;;;;2.60;2.15;;;8.20;99.90;;;;;;5006274;28;22394;-68
2024/02/04 12:12:06;;;;;;;3.05;2.25;;;8.20;99.90;;;;;;5008892;28;20133;-70
2024/02/04 12:14:34;;;;;;;2.38;2.17;;;8.20;99.90;;;;;;5009070;28;20038;-66
2024/02/04 12:17:08;;;;;;;2.90;2.30;;;8.10;99.90;;;;;;5008048;28;20149;-67
2024/02/04 12:19:33;;;;;;;4.63;2.28;;;8.10;99.90;;;;;;5005337;28;20121;-67
2024/02/04 12:21:59;;;;;;;4.50;2.30;;;8.20;99.90;;;;;;5006219;28;20122;-67
2024/02/04 12:24:25;;;;;;;5.65;2.85;;;8.20;99.90;;;;;;5008880;28;20124;-67
2024/02/04 12:26:50;;;;;;;4.13;2.88;;;8.20;99.90;;;;;;5008243;28;20046;-67
2024/02/04 12:29:16;;;;;;;;;;;8.10;99.90;;;;;;5007601;28;20486;-67
2024/02/04 12:31:42;;;;;;;4.60;3.25;;;8.20;99.90;;;;;;5007255;28;19917;-67
2024/02/04 12:34:07;;;;;;;;;;;8.20;99.90;;;;;;5008474;28;20132;-67
2024/02/04 12:36:33;;;;;;;4.15;3.05;;;8.20;99.90;;;;;;5008354;28;19922;-67
2024/02/04 12:39:03;;;;;;;5.35;3.58;;;8.20;99.90;;;;;;5009216;28;20049;-67
2024/02/04 12:41:29;;;;;;;3.78;3.22;;;;;;;;;;5007745;28;20037;-67
2024/02/04 12:43:56;;;;;;;5.25;3.70;;;;;;;;;;5008804;28;20044;-67
2024/02/04 12:46:23;;;;;;;5.85;3.88;;;;;;;;;;5008408;28;20057;-67
2024/02/04 12:48:55;;;;;;;3.83;3.35;;;;;;;;;;5005967;28;20029;-67
2024/02/04 12:51:31;;;;;;;6.50;3.30;;;;;;;;;;5007929;28;20038;-67
2024/02/04 12:54:06;;;;;;;5.63;3.22;;;;;;;;;;5006833;28;20133;-67
2024/02/04 12:56:47;;;;;;;4.90;3.00;;;;;;;;;;5006338;28;20056;-67
2024/02/04 12:59:29;;;;;;;3.53;2.58;;;;;;;;;;5008897;28;20038;-66
2024/02/04 13:01:56;;;;;;;2.80;2.28;;;;;;;;;;5002273;28;20121;-67
2024/02/04 13:04:22;;;;;;;3.08;1.85;;;;;;;;;;5009378;28;20085;-66
2024/02/04 13:06:48;;;;;;;2.53;1.90;;;;;;;;;;5004348;28;20042;-67